sensor_id;sensor_type;location;lat;lon;timestamp;pressure;altitude;pressure_sealevel;temperature;humidity
37648;BME280;23490;53.656;10.076;2024-02-04T00:01:07;28420.75;;;-145.95;100.00
37648;BME280;23490;53.656;10.076;2024-02-04T00:03:32;28679.66;;;-145.95;100.00
37648;BME280;23490;53.656;10.076;2024-02-04T00:05:58;28679.66;;;-145.95;100.00
37648;BME280;23490;53.656;10.076;2024-02-04T00:08:23;28679.66;;;-145.95;100.00
37648;BME280;23490;53.656;10.076;2024-02-04T00:10:48;28938.59;;;-145.95;100.00
37648;BME280;23490;53.656;10.076;2024-02-04T00:13:14;29715.50;;;-145.95;100.00
37648;BME280;23490;53.656;10.076;2024-02-04T00:15:39;29456.50;;;-145.95;100.00
37648;BME280;23490;53.656;10.076;2024-02-04T00:18:05;29715.50;;;-145.95;100.00
37648;BME280;23490;53.656;10.076;2024-02-04T00:20:31;29974.50;;;-145.95;100.00
37648;BME280;23490;53.656;10.076;2024-02-04T00:22:58;28938.59;;;-145.95;100.00
37648;BME280;23490;53.656;10.076;2024-02-04T00:25:23;28938.59;;;-145.95;100.00
37648;BME280;23490;53.656;10.076;2024-02-04T00:27:48;27644.19;;;-145.95;100.00
37648;BME280;23490;53.656;10.076;2024-02-04T00:30:14;26350.25;;;-145.95;100.00
37648;BME280;23490;53.656;10.076;2024-02-04T00:32:39;24798.22;;;-145.95;100.00
37648;BME280;23490;53.656;10.076;2024-02-04T00:35:05;24539.63;;;-145.95;100.00
37648;BME280;23490;53.656;10.076;2024-02-04T00:37:30;22213.09;;;-145.95;100.00
37648;BME280;23490;53.656;10.076;2024-02-04T00:39:55;22471.53;;;-145.95;100.00
37648;BME280;23490;53.656;10.076;2024-02-04T00:42:21;22471.53;;;-145.95;100.00
37648;BME280;23490;53.656;10.076;2024-02-04T00:44:46;21696.31;;;-145.95;100.00
37648;BME280;23490;53.656;10.076;2024-02-04T00:47:12;21179.59;;;-145.95;100.00
37648;BME280;23490;53.656;10.076;2024-02-04T00:49:38;20663.00;;;-145.95;100.00
37648;BME280;23490;53.656;10.076;2024-02-04T00:52:04;20921.28;;;-145.95;100.00
37648;BME280;23490;53.656;10.076;2024-02-04T00:54:29;20921.28;;;-145.95;100.00
37648;BME280;23490;53.656;10.076;2024-02-04T00:56:55;19888.19;;;-145.95;100.00
37648;BME280;23490;53.656;10.076;2024-02-04T00:59:20;19629.97;;;-145.95;100.00
37648;BME280;23490;53.656;10.076;2024-02-04T01:01:46;20404.72;;;-145.95;100.00
37648;BME280;23490;53.656;10.076;2024-02-04T01:04:11;20404.72;;;-145.95;100.00
37648;BME280;23490;53.656;10.076;2024-02-04T01:06:37;20921.28;;;-145.95;100.00
37648;BME280;23490;53.656;10.076;2024-02-04T01:09:02;19629.97;;;-145.95;100.00
37648;BME280;23490;53.656;10.076;2024-02-04T01:11:28;19113.59;;;-145.95;100.00
37648;BME280;23490;53.656;10.076;2024-02-04T01:13:54;19371.78;;;-145.95;100.00
37648;BME280;23490;53.656;10.076;2024-02-04T01:16:19;20146.44;;;-145.95;100.00
37648;BME280;23490;53.656;10.076;2024-02-04T01:18:45;21179.59;;;-145.95;100.00
37648;BME280;23490;53.656;10.076;2024-02-04T01:21:10;21179.59;;;-145.95;100.00
37648;BME280;23490;53.656;10.076;2024-02-04T01:23:36;23505.41;;;-145.95;100.00
37648;BME280;23490;53.656;10.076;2024-02-04T01:26:01;23505.41;;;-145.95;100.00
37648;BME280;23490;53.656;10.076;2024-02-04T01:28:26;24798.22;;;-145.95;100.00
37648;BME280;23490;53.656;10.076;2024-02-04T01:30:52;25574.16;;;-145.95;100.00
37648;BME280;23490;53.656;10.076;2024-02-04T01:33:17;25574.16;;;-145.95;100.00
37648;BME280;23490;53.656;10.076;2024-02-04T01:35:42;27126.53;;;-145.95;100.00
37648;BME280;23490;53.656;10.076;2024-02-04T01:38:08;27903.03;;;-145.95;100.00
37648;BME280;23490;53.656;10.076;2024-02-04T01:40:33;29715.50;;;-145.95;100.00
37648;BME280;23490;53.656;10.076;2024-02-04T01:42:58;30492.56;;;-145.95;100.00
37648;BME280;23490;53.656;10.076;2024-02-04T01:45:24;30751.63;;;-145.95;100.00
37648;BME280;23490;53.656;10.076;2024-02-04T01:47:50;30492.56;;;-145.95;100.00
37648;BME280;23490;53.656;10.076;2024-02-04T01:50:15;31528.94;;;-145.95;100.00
37648;BME280;23490;53.656;10.076;2024-02-04T01:52:42;32306.44;;;-145.95;100.00
37648;BME280;23490;53.656;10.076;2024-02-04T01:55:08;33602.66;;;-145.95;100.00
37648;BME280;23490;53.656;10.076;2024-02-04T01:57:33;33861.97;;;-145.95;100.00
37648;BME280;23490;53.656;10.076;2024-02-04T02:00:03;34899.41;;;-145.95;100.00
37648;BME280;23490;53.656;10.076;2024-02-04T02:02:30;35158.81;;;-145.95;100.00
37648;BME280;23490;53.656;10.076;2024-02-04T02:04:56;36196.63;;;-145.95;100.00
37648;BME280;23490;53.656;10.076;2024-02-04T02:07:22;38013.59;;;-145.95;100.00
37648;BME280;23490;53.656;10.076;2024-02-04T02:09:49;38792.59;;;-145.95;100.00
37648;BME280;23490;53.656;10.076;2024-02-04T02:12:26;39052.31;;;-145.95;100.00
37648;BME280;23490;53.656;10.076;2024-02-04T02:14:59;39831.56;;;-145.95;100.00
37648;BME280;23490;53.656;10.076;2024-02-04T02:17:45;41130.69;;;-145.95;100.00
37648;BME280;23490;53.656;10.076;2024-02-04T02:20:41;41130.69;;;-145.95;100.00
37648;BME280;23490;53.656;10.076;2024-02-04T02:23:22;38792.59;;;-145.95;100.00
37648;BME280;23490;53.656;10.076;2024-02-04T02:25:53;40091.34;;;-145.95;100.00
37648;BME280;23490;53.656;10.076;2024-02-04T02:28:20;41390.59;;;-145.95;100.00
37648;BME280;23490;53.656;10.076;2024-02-04T02:30:45;41650.50;;;-145.95;100.00
37648;BME280;23490;53.656;10.076;2024-02-04T02:33:11;42170.38;;;-145.95;100.00
37648;BME280;23490;53.656;10.076;2024-02-04T02:35:36;42690.34;;;-145.95;100.00
37648;BME280;23490;53.656;10.076;2024-02-04T02:38:12;43990.56;;;-145.95;100.00
37648;BME280;23490;53.656;10.076;2024-02-04T02:40:54;43730.50;;;-145.95;100.00
37648;BME280;23490;53.656;10.076;2024-02-04T02:43:21;42690.34;;;-145.95;100.00
37648;BME280;23490;53.656;10.076;2024-02-04T02:45:48;42430.34;;;-145.95;100.00
37648;BME280;23490;53.656;10.076;2024-02-04T02:48:13;43990.56;;;-145.95;100.00
37648;BME280;23490;53.656;10.076;2024-02-04T02:50:39;42950.34;;;-145.95;100.00
37648;BME280;23490;53.656;10.076;2024-02-04T02:53:04;41910.41;;;-145.95;100.00
37648;BME280;23490;53.656;10.076;2024-02-04T02:55:30;42430.34;;;-145.95;100.00
37648;BME280;23490;53.656;10.076;2024-02-04T02:57:56;41910.41;;;-145.95;100.00
37648;BME280;23490;53.656;10.076;2024-02-04T03:00:21;42170.38;;;-145.95;100.00
37648;BME280;23490;53.656;10.076;2024-02-04T03:02:46;41910.41;;;-145.95;100.00
37648;BME280;23490;53.656;10.076;2024-02-04T03:05:13;41910.41;;;-145.95;100.00
37648;BME280;23490;53.656;10.076;2024-02-04T03:07:40;40610.97;;;-145.95;100.00
37648;BME280;23490;53.656;10.076;2024-02-04T03:10:05;39052.31;;;-145.95;100.00
37648;BME280;23490;53.656;10.076;2024-02-04T03:12:31;39052.31;;;-145.95;100.00
37648;BME280;23490;53.656;10.076;2024-02-04T03:14:56;37494.38;;;-145.95;100.00
37648;BME280;23490;53.656;10.076;2024-02-04T03:17:22;35937.16;;;-145.95;100.00
37648;BME280;23490;53.656;10.076;2024-02-04T03:19:48;35937.16;;;-145.95;100.00
37648;BME280;23490;53.656;10.076;2024-02-04T03:22:14;35158.81;;;-145.95;100.00
37648;BME280;23490;53.656;10.076;2024-02-04T03:24:39;34640.00;;;-145.95;100.00
37648;BME280;23490;53.656;10.076;2024-02-04T03:27:05;33602.66;;;-145.95;100.00
37648;BME280;23490;53.656;10.076;2024-02-04T03:29:30;33602.66;;;-145.95;100.00
37648;BME280;23490;53.656;10.076;2024-02-04T03:31:56;32306.44;;;-145.95;100.00
37648;BME280;23490;53.656;10.076;2024-02-04T03:34:22;30751.63;;;-145.95;100.00
37648;BME280;23490;53.656;10.076;2024-02-04T03:36:47;30233.53;;;-145.95;100.00
37648;BME280;23490;53.656;10.076;2024-02-04T03:39:12;30492.56;;;-145.95;100.00
37648;BME280;23490;53.656;10.076;2024-02-04T03:41:38;31010.72;;;-145.95;100.00
37648;BME280;23490;53.656;10.076;2024-02-04T03:44:04;31528.94;;;-145.95;100.00
37648;BME280;23490;53.656;10.076;2024-02-04T03:46:29;30233.53;;;-145.95;100.00
37648;BME280;23490;53.656;10.076;2024-02-04T03:48:54;28938.59;;;-145.95;100.00
37648;BME280;23490;53.656;10.076;2024-02-04T03:51:20;28679.66;;;-145.95;100.00
37648;BME280;23490;53.656;10.076;2024-02-04T03:53:46;28938.59;;;-145.95;100.00
37648;BME280;23490;53.656;10.076;2024-02-04T03:56:12;28938.59;;;-145.95;100.00
37648;BME280;23490;53.656;10.076;2024-02-04T03:58:37;27385.34;;;-145.95;100.00
37648;BME280;23490;53.656;10.076;2024-02-04T04:01:03;27385.34;;;-145.95;100.00
37648;BME280;23490;53.656;10.076;2024-02-04T04:03:28;28420.75;;;-145.95;100.00
37648;BME280;23490;53.656;10.076;2024-02-04T04:05:54;27903.03;;;-145.95;100.00
37648;BME280;23490;53.656;10.076;2024-02-04T04:08:19;27903.03;;;-145.95;100.00
37648;BME280;23490;53.656;10.076;2024-02-04T04:10:45;27644.19;;;-145.95;100.00
37648;BME280;23490;53.656;10.076;2024-02-04T04:13:11;27385.34;;;-145.95;100.00
37648;BME280;23490;53.656;10.076;2024-02-04T04:15:37;26609.00;;;-145.95;100.00
37648;BME280;23490;53.656;10.076;2024-02-04T04:18:02;26867.75;;;-145.95;100.00
37648;BME280;23490;53.656;10.076;2024-02-04T04:20:28;26350.25;;;-145.95;100.00
37648;BME280;23490;53.656;10.076;2024-02-04T04:22:53;24281.03;;;-145.95;100.00
37648;BME280;23490;53.656;10.076;2024-02-04T04:25:18;22988.41;;;-145.95;100.00
37648;BME280;23490;53.656;10.076;2024-02-04T04:27:44;23763.94;;;-145.95;100.00
37648;BME280;23490;53.656;10.076;2024-02-04T04:30:10;22471.53;;;-145.95;100.00
37648;BME280;23490;53.656;10.076;2024-02-04T04:32:36;21954.69;;;-145.95;100.00
37648;BME280;23490;53.656;10.076;2024-02-04T04:35:01;21696.31;;;-145.95;100.00
37648;BME280;23490;53.656;10.076;2024-02-04T04:37:27;21179.59;;;-145.95;100.00
37648;BME280;23490;53.656;10.076;2024-02-04T04:39:52;21179.59;;;-145.95;100.00
37648;BME280;23490;53.656;10.076;2024-02-04T04:42:17;21179.59;;;-145.95;100.00
37648;BME280;23490;53.656;10.076;2024-02-04T04:44:43;20404.72;;;-145.95;100.00
37648;BME280;23490;53.656;10.076;2024-02-04T04:47:08;19371.78;;;-145.95;100.00
37648;BME280;23490;53.656;10.076;2024-02-04T04:49:34;18339.19;;;-145.95;100.00
37648;BME280;23490;53.656;10.076;2024-02-04T04:51:59;16790.88;;;-145.95;100.00
37648;BME280;23490;53.656;10.076;2024-02-04T04:54:24;14985.44;;;-145.95;100.00
37648;BME280;23490;53.656;10.076;2024-02-04T04:56:50;14211.97;;;-145.95;100.00
37648;BME280;23490;53.656;10.076;2024-02-04T04:59:16;12923.28;;;-145.95;100.00
37648;BME280;23490;53.656;10.076;2024-02-04T05:01:48;12407.94;;;-145.95;100.00
37648;BME280;23490;53.656;10.076;2024-02-04T05:04:14;13438.72;;;-145.95;100.00
37648;BME280;23490;53.656;10.076;2024-02-04T05:06:40;13181.00;;;-145.95;100.00
37648;BME280;23490;53.656;10.076;2024-02-04T05:09:05;11635.09;;;-145.95;100.00
37648;BME280;23490;53.656;10.076;2024-02-04T05:11:31;11119.97;;;-145.95;100.00
37648;BME280;23490;53.656;10.076;2024-02-04T05:13:56;10604.91;;;-145.95;100.00
37648;BME280;23490;53.656;10.076;2024-02-04T05:16:21;10347.41;;;-145.95;100.00
37648;BME280;23490;53.656;10.076;2024-02-04T05:18:46;10089.94;;;-145.95;100.00
37648;BME280;23490;53.656;10.076;2024-02-04T05:21:12;9832.47;;;-145.95;100.00
37648;BME280;23490;53.656;10.076;2024-02-04T05:23:37;9832.47;;;-145.95;100.00
37648;BME280;23490;53.656;10.076;2024-02-04T05:26:06;10089.94;;;-145.95;100.00
37648;BME280;23490;53.656;10.076;2024-02-04T05:28:32;10089.94;;;-145.95;100.00
37648;BME280;23490;53.656;10.076;2024-02-04T05:30:57;9060.22;;;-145.95;100.00
37648;BME280;23490;53.656;10.076;2024-02-04T05:33:23;8545.50;;;-145.95;100.00
37648;BME280;23490;53.656;10.076;2024-02-04T05:35:48;8545.50;;;-145.95;100.00
37648;BME280;23490;53.656;10.076;2024-02-04T05:38:14;7773.53;;;-145.95;100.00
37648;BME280;23490;53.656;10.076;2024-02-04T05:40:39;7259.00;;;-145.95;100.00
37648;BME280;23490;53.656;10.076;2024-02-04T05:43:05;6230.19;;;-145.95;100.00
37648;BME280;23490;53.656;10.076;2024-02-04T05:45:31;6487.34;;;-145.95;100.00
37648;BME280;23490;53.656;10.076;2024-02-04T05:47:57;6230.19;;;-145.95;100.00
37648;BME280;23490;53.656;10.076;2024-02-04T05:50:22;5973.03;;;-145.95;100.00
37648;BME280;23490;53.656;10.076;2024-02-04T05:52:48;6230.19;;;-145.95;100.00
37648;BME280;23490;53.656;10.076;2024-02-04T05:55:14;6487.34;;;-145.95;100.00
37648;BME280;23490;53.656;10.076;2024-02-04T05:57:39;5973.03;;;-145.95;100.00
37648;BME280;23490;53.656;10.076;2024-02-04T06:00:06;6230.19;;;-145.95;100.00
37648;BME280;23490;53.656;10.076;2024-02-04T06:02:32;6230.19;;;-145.95;100.00
37648;BME280;23490;53.656;10.076;2024-02-04T06:04:58;5715.88;;;-145.95;100.00
37648;BME280;23490;53.656;10.076;2024-02-04T06:07:23;6230.19;;;-145.95;100.00
37648;BME280;23490;53.656;10.076;2024-02-04T06:09:48;6230.19;;;-145.95;100.00
37648;BME280;23490;53.656;10.076;2024-02-04T06:12:14;7259.00;;;-145.95;100.00
37648;BME280;23490;53.656;10.076;2024-02-04T06:14:39;7259.00;;;-145.95;100.00
37648;BME280;23490;53.656;10.076;2024-02-04T06:17:05;7001.78;;;-145.95;100.00
37648;BME280;23490;53.656;10.076;2024-02-04T06:19:34;7259.00;;;-145.95;100.00
37648;BME280;23490;53.656;10.076;2024-02-04T06:21:59;8545.50;;;-145.95;100.00
37648;BME280;23490;53.656;10.076;2024-02-04T06:24:24;9832.47;;;-145.95;100.00
37648;BME280;23490;53.656;10.076;2024-02-04T06:26:50;9575.03;;;-145.95;100.00
37648;BME280;23490;53.656;10.076;2024-02-04T06:29:15;9060.22;;;-145.95;100.00
37648;BME280;23490;53.656;10.076;2024-02-04T06:31:44;8802.84;;;-145.95;100.00
37648;BME280;23490;53.656;10.076;2024-02-04T06:34:09;8802.84;;;-145.95;100.00
37648;BME280;23490;53.656;10.076;2024-02-04T06:36:34;8030.84;;;-145.95;100.00
37648;BME280;23490;53.656;10.076;2024-02-04T06:39:00;8802.84;;;-145.95;100.00
37648;BME280;23490;53.656;10.076;2024-02-04T06:41:25;8545.50;;;-145.95;100.00
37648;BME280;23490;53.656;10.076;2024-02-04T06:43:51;9317.63;;;-145.95;100.00
37648;BME280;23490;53.656;10.076;2024-02-04T06:46:28;8545.50;;;-145.95;100.00
37648;BME280;23490;53.656;10.076;2024-02-04T06:48:53;10089.94;;;-145.95;100.00
37648;BME280;23490;53.656;10.076;2024-02-04T06:51:19;10347.41;;;-145.95;100.00
37648;BME280;23490;53.656;10.076;2024-02-04T06:53:45;10347.41;;;-145.95;100.00
37648;BME280;23490;53.656;10.076;2024-02-04T06:56:11;9575.03;;;-145.95;100.00
37648;BME280;23490;53.656;10.076;2024-02-04T06:58:40;9575.03;;;-145.95;100.00
37648;BME280;23490;53.656;10.076;2024-02-04T07:01:05;10862.44;;;-145.95;100.00
37648;BME280;23490;53.656;10.076;2024-02-04T07:03:31;10862.44;;;-145.95;100.00
37648;BME280;23490;53.656;10.076;2024-02-04T07:05:57;10089.94;;;-145.95;100.00
37648;BME280;23490;53.656;10.076;2024-02-04T07:08:23;10862.44;;;-145.95;100.00
37648;BME280;23490;53.656;10.076;2024-02-04T07:10:48;11377.53;;;-145.95;100.00
37648;BME280;23490;53.656;10.076;2024-02-04T07:13:14;11119.97;;;-145.95;100.00
37648;BME280;23490;53.656;10.076;2024-02-04T07:15:39;11635.09;;;-145.95;100.00
37648;BME280;23490;53.656;10.076;2024-02-04T07:18:05;12407.94;;;-145.95;100.00
37648;BME280;23490;53.656;10.076;2024-02-04T07:20:30;12665.63;;;-145.95;100.00
37648;BME280;23490;53.656;10.076;2024-02-04T07:22:55;12665.63;;;-145.95;100.00
37648;BME280;23490;53.656;10.076;2024-02-04T07:25:21;13438.72;;;-145.95;100.00
37648;BME280;23490;53.656;10.076;2024-02-04T07:27:47;13438.72;;;-145.95;100.00
37648;BME280;23490;53.656;10.076;2024-02-04T07:30:12;12923.28;;;-145.95;100.00
37648;BME280;23490;53.656;10.076;2024-02-04T07:32:38;12923.28;;;-145.95;100.00
37648;BME280;23490;53.656;10.076;2024-02-04T07:35:03;15501.19;;;-145.95;100.00
37648;BME280;23490;53.656;10.076;2024-02-04T07:37:29;15759.09;;;-145.95;100.00
37648;BME280;23490;53.656;10.076;2024-02-04T07:39:54;15501.19;;;-145.95;100.00
37648;BME280;23490;53.656;10.076;2024-02-04T07:42:19;15243.31;;;-145.95;100.00
37648;BME280;23490;53.656;10.076;2024-02-04T07:44:45;14211.97;;;-145.95;100.00
37648;BME280;23490;53.656;10.076;2024-02-04T07:47:10;15759.09;;;-145.95;100.00
37648;BME280;23490;53.656;10.076;2024-02-04T07:49:36;15243.31;;;-145.95;100.00
37648;BME280;23490;53.656;10.076;2024-02-04T07:52:02;16017.00;;;-145.95;100.00
37648;BME280;23490;53.656;10.076;2024-02-04T07:54:28;16532.91;;;-145.95;100.00
37648;BME280;23490;53.656;10.076;2024-02-04T07:56:54;16790.88;;;-145.95;100.00
37648;BME280;23490;53.656;10.076;2024-02-04T07:59:19;17048.88;;;-145.95;100.00
37648;BME280;23490;53.656;10.076;2024-02-04T08:01:45;17564.94;;;-145.95;100.00
37648;BME280;23490;53.656;10.076;2024-02-04T08:04:10;18339.19;;;-145.95;100.00
37648;BME280;23490;53.656;10.076;2024-02-04T08:06:36;17564.94;;;-145.95;100.00
37648;BME280;23490;53.656;10.076;2024-02-04T08:09:03;18339.19;;;-145.95;100.00
37648;BME280;23490;53.656;10.076;2024-02-04T08:11:29;19371.78;;;-145.95;100.00
37648;BME280;23490;53.656;10.076;2024-02-04T08:13:54;19113.59;;;-145.95;100.00
37648;BME280;23490;53.656;10.076;2024-02-04T08:16:20;20663.00;;;-145.95;100.00
37648;BME280;23490;53.656;10.076;2024-02-04T08:18:46;21696.31;;;-145.95;100.00
37648;BME280;23490;53.656;10.076;2024-02-04T08:21:11;22213.09;;;-145.95;100.00
37648;BME280;23490;53.656;10.076;2024-02-04T08:23:37;20663.00;;;-145.95;100.00
37648;BME280;23490;53.656;10.076;2024-02-04T08:26:02;22988.41;;;-145.95;100.00
37648;BME280;23490;53.656;10.076;2024-02-04T08:28:28;23246.91;;;-145.95;100.00
37648;BME280;23490;53.656;10.076;2024-02-04T08:30:54;23246.91;;;-145.95;100.00
37648;BME280;23490;53.656;10.076;2024-02-04T08:33:20;23246.91;;;-145.95;100.00
37648;BME280;23490;53.656;10.076;2024-02-04T08:35:45;24798.22;;;-145.95;100.00
37648;BME280;23490;53.656;10.076;2024-02-04T08:38:10;23763.94;;;-145.95;100.00
37648;BME280;23490;53.656;10.076;2024-02-04T08:40:36;25315.47;;;-145.95;100.00
37648;BME280;23490;53.656;10.076;2024-02-04T08:43:01;25832.84;;;-145.95;100.00
37648;BME280;23490;53.656;10.076;2024-02-04T08:45:26;26091.53;;;-145.95;100.00
37648;BME280;23490;53.656;10.076;2024-02-04T08:47:52;26350.25;;;-145.95;100.00
37648;BME280;23490;53.656;10.076;2024-02-04T08:50:17;26609.00;;;-145.95;100.00
37648;BME280;23490;53.656;10.076;2024-02-04T08:52:43;29197.53;;;-145.95;100.00
37648;BME280;23490;53.656;10.076;2024-02-04T08:55:08;30492.56;;;-145.95;100.00
37648;BME280;23490;53.656;10.076;2024-02-04T08:57:34;31010.72;;;-145.95;100.00
37648;BME280;23490;53.656;10.076;2024-02-04T08:59:59;31010.72;;;-145.95;100.00
37648;BME280;23490;53.656;10.076;2024-02-04T09:02:24;30492.56;;;-145.95;100.00
37648;BME280;23490;53.656;10.076;2024-02-04T09:04:50;31788.09;;;-145.95;100.00
37648;BME280;23490;53.656;10.076;2024-02-04T09:07:15;32047.25;;;-145.95;100.00
37648;BME280;23490;53.656;10.076;2024-02-04T09:09:41;29715.50;;;-145.95;100.00
37648;BME280;23490;53.656;10.076;2024-02-04T09:12:09;29715.50;;;-145.95;100.00
37648;BME280;23490;53.656;10.076;2024-02-04T09:14:34;32565.66;;;-145.95;100.00
37648;BME280;23490;53.656;10.076;2024-02-04T09:17:02;34380.66;;;-145.95;100.00
37648;BME280;23490;53.656;10.076;2024-02-04T09:19:29;33861.97;;;-145.95;100.00
37648;BME280;23490;53.656;10.076;2024-02-04T09:21:56;35677.69;;;-145.95;100.00
37648;BME280;23490;53.656;10.076;2024-02-04T09:24:22;35937.16;;;-145.95;100.00
37648;BME280;23490;53.656;10.076;2024-02-04T09:26:47;36975.22;;;-145.95;100.00
37648;BME280;23490;53.656;10.076;2024-02-04T09:29:12;37494.38;;;-145.95;100.00
37648;BME280;23490;53.656;10.076;2024-02-04T09:31:38;36975.22;;;-145.95;100.00
37648;BME280;23490;53.656;10.076;2024-02-04T09:34:03;36975.22;;;-145.95;100.00
37648;BME280;23490;53.656;10.076;2024-02-04T09:36:29;38792.59;;;-145.95;100.00
37648;BME280;23490;53.656;10.076;2024-02-04T09:38:54;39052.31;;;-145.95;100.00
37648;BME280;23490;53.656;10.076;2024-02-04T09:41:21;41130.69;;;-145.95;100.00
37648;BME280;23490;53.656;10.076;2024-02-04T09:43:49;40870.81;;;-145.95;100.00
37648;BME280;23490;53.656;10.076;2024-02-04T09:46:16;40351.16;;;-145.95;100.00
37648;BME280;23490;53.656;10.076;2024-02-04T09:48:44;40351.16;;;-145.95;100.00
37648;BME280;23490;53.656;10.076;2024-02-04T09:51:10;42950.34;;;-145.95;100.00
37648;BME280;23490;53.656;10.076;2024-02-04T09:53:35;42690.34;;;-145.95;100.00
37648;BME280;23490;53.656;10.076;2024-02-04T09:56:03;40870.81;;;-145.95;100.00
37648;BME280;23490;53.656;10.076;2024-02-04T09:58:31;43730.50;;;-145.95;100.00
37648;BME280;23490;53.656;10.076;2024-02-04T10:00:57;42690.34;;;-145.95;100.00
37648;BME280;23490;53.656;10.076;2024-02-04T10:03:22;42430.34;;;-145.95;100.00
37648;BME280;23490;53.656;10.076;2024-02-04T10:05:48;44770.97;;;-145.95;100.00
37648;BME280;23490;53.656;10.076;2024-02-04T10:08:14;44510.81;;;-145.95;100.00
37648;BME280;23490;53.656;10.076;2024-02-04T10:10:40;45031.13;;;-145.95;100.00
37648;BME280;23490;53.656;10.076;2024-02-04T10:13:09;44770.97;;;-145.95;100.00
37648;BME280;23490;53.656;10.076;2024-02-04T10:15:34;46072.00;;;-145.95;100.00
37648;BME280;23490;53.656;10.076;2024-02-04T10:18:03;45031.13;;;-145.95;100.00
37648;BME280;23490;53.656;10.076;2024-02-04T10:20:29;45291.31;;;-145.95;100.00
37648;BME280;23490;53.656;10.076;2024-02-04T10:22:54;46592.56;;;-145.95;100.00
37648;BME280;23490;53.656;10.076;2024-02-04T10:25:20;45291.31;;;-145.95;100.00
37648;BME280;23490;53.656;10.076;2024-02-04T10:27:46;47373.56;;;-145.95;100.00
37648;BME280;23490;53.656;10.076;2024-02-04T10:30:12;46592.56;;;-145.95;100.00
37648;BME280;23490;53.656;10.076;2024-02-04T10:32:38;46332.28;;;-145.95;100.00
37648;BME280;23490;53.656;10.076;2024-02-04T10:35:03;47894.34;;;-145.95;100.00
37648;BME280;23490;53.656;10.076;2024-02-04T10:37:29;47633.94;;;-145.95;100.00
37648;BME280;23490;53.656;10.076;2024-02-04T10:39:54;51020.59;;;-145.95;100.00
37648;BME280;23490;53.656;10.076;2024-02-04T10:42:26;50499.34;;;-145.95;100.00
37648;BME280;23490;53.656;10.076;2024-02-04T10:44:53;53106.38;;;-145.95;100.00
37648;BME280;23490;53.656;10.076;2024-02-04T10:47:22;54149.75;;;-145.95;100.00
37648;BME280;23490;53.656;10.076;2024-02-04T10:49:52;52845.56;;;-145.95;100.00
37648;BME280;23490;53.656;10.076;2024-02-04T10:52:22;56759.59;;;-145.95;100.00
37648;BME280;23490;53.656;10.076;2024-02-04T10:54:51;57020.69;;;-145.95;100.00
37648;BME280;23490;53.656;10.076;2024-02-04T10:57:20;56237.44;;;-145.95;100.00
37648;BME280;23490;53.656;10.076;2024-02-04T10:59:51;57020.69;;;-145.95;100.00
37648;BME280;23490;53.656;10.076;2024-02-04T11:02:17;58587.66;;;-145.95;100.00
37648;BME280;23490;53.656;10.076;2024-02-04T11:04:43;59632.72;;;-145.95;100.00
37648;BME280;23490;53.656;10.076;2024-02-04T11:07:10;60155.38;;;-145.95;100.00
37648;BME280;23490;53.656;10.076;2024-02-04T11:09:37;61462.34;;;-145.95;100.00
37648;BME280;23490;53.656;10.076;2024-02-04T11:12:06;62769.81;;;-145.95;100.00
37648;BME280;23490;53.656;10.076;2024-02-04T11:14:36;58848.91;;;-145.95;100.00
37648;BME280;23490;53.656;10.076;2024-02-04T11:22:57;62246.78;;;-145.95;100.00
37648;BME280;23490;53.656;10.076;2024-02-04T11:27:59;61723.81;;;-145.95;100.00
37648;BME280;23490;53.656;10.076;2024-02-04T11:30:25;64339.47;;;-145.95;100.00
37648;BME280;23490;53.656;10.076;2024-02-04T11:32:50;66695.28;;;-145.95;100.00
37648;BME280;23490;53.656;10.076;2024-02-04T11:35:16;66433.44;;;-145.95;100.00
37648;BME280;23490;53.656;10.076;2024-02-04T11:37:42;65386.31;;;-145.95;100.00
37648;BME280;23490;53.656;10.076;2024-02-04T11:40:14;67480.91;;;-145.95;100.00
37648;BME280;23490;53.656;10.076;2024-02-04T11:42:40;69838.91;;;-145.95;100.00
37648;BME280;23490;53.656;10.076;2024-02-04T11:45:07;71674.03;;;-145.95;100.00
37648;BME280;23490;53.656;10.076;2024-02-04T11:47:33;69838.91;;;-145.95;100.00
37648;BME280;23490;53.656;10.076;2024-02-04T11:49:59;70887.41;;;-145.95;100.00
37648;BME280;23490;53.656;10.076;2024-02-04T11:52:28;70625.25;;;-145.95;100.00
37648;BME280;23490;53.656;10.076;2024-02-04T11:54:54;71149.59;;;-145.95;100.00
37648;BME280;23490;53.656;10.076;2024-02-04T11:57:19;70363.13;;;-145.95;100.00
37648;BME280;23490;53.656;10.076;2024-02-04T11:59:46;72198.53;;;-145.95;100.00
37648;BME280;23490;53.656;10.076;2024-02-04T12:02:14;70887.41;;;-145.95;100.00
37648;BME280;23490;53.656;10.076;2024-02-04T12:04:40;71674.03;;;-145.95;100.00
37648;BME280;23490;53.656;10.076;2024-02-04T12:07:06;72723.09;;;-145.95;100.00
37648;BME280;23490;53.656;10.076;2024-02-04T12:09:34;75035.47;;;-145.95;100.00
37648;BME280;23490;53.656;10.076;2024-02-04T12:12:00;75699.97;;;-145.95;100.00
37648;BME280;23490;53.656;10.076;2024-02-04T12:14:27;74887.84;;;-145.95;100.00
37648;BME280;23490;53.656;10.076;2024-02-04T12:16:52;78946.31;;;-145.95;100.00
37648;BME280;23490;53.656;10.076;2024-02-04T12:19:17;76705.16;;;-145.95;100.00
37648;BME280;23490;53.656;10.076;2024-02-04T12:21:43;76056.88;;;-145.95;100.00
37648;BME280;23490;53.656;10.076;2024-02-04T12:24:08;78170.34;;;-145.95;100.00